sensor_id;sensor_type;location;lat;lon;timestamp;P1;durP1;ratioP1;P2;durP2;ratioP2
27722;SDS011;15123;-37.794;175.246;2022-07-09T00:02:53;23.42;;;3.22;;
27722;SDS011;15123;-37.794;175.246;2022-07-09T00:06:18;18.40;;;2.70;;
27722;SDS011;15123;-37.794;175.246;2022-07-09T00:09:42;25.40;;;3.15;;
27722;SDS011;15123;-37.794;175.246;2022-07-09T00:13:07;20.45;;;3.08;;
27722;SDS011;15123;-37.794;175.246;2022-07-09T00:16:32;24.23;;;2.72;;
27722;SDS011;15123;-37.794;175.246;2022-07-09T00:19:57;21.42;;;2.80;;
27722;SDS011;15123;-37.794;175.246;2022-07-09T00:23:21;23.02;;;2.55;;
27722;SDS011;15123;-37.794;175.246;2022-07-09T00:26:45;19.85;;;2.75;;
27722;SDS011;15123;-37.794;175.246;2022-07-09T00:30:09;22.17;;;3.13;;
27722;SDS011;15123;-37.794;175.246;2022-07-09T00:33:33;23.35;;;2.90;;
27722;SDS011;15123;-37.794;175.246;2022-07-09T00:36:57;24.08;;;2.75;;
27722;SDS011;15123;-37.794;175.246;2022-07-09T00:40:21;25.02;;;3.08;;
27722;SDS011;15123;-37.794;175.246;2022-07-09T00:43:46;21.83;;;2.60;;
27722;SDS011;15123;-37.794;175.246;2022-07-09T00:47:10;21.13;;;2.80;;
27722;SDS011;15123;-37.794;175.246;2022-07-09T00:50:34;23.73;;;3.00;;
27722;SDS011;15123;-37.794;175.246;2022-07-09T00:53:58;21.73;;;2.60;;
27722;SDS011;15123;-37.794;175.246;2022-07-09T00:57:22;25.15;;;2.70;;
27722;SDS011;15123;-37.794;175.246;2022-07-09T01:00:47;19.98;;;2.40;;
27722;SDS011;15123;-37.794;175.246;2022-07-09T01:04:11;22.40;;;2.65;;
27722;SDS011;15123;-37.794;175.246;2022-07-09T01:07:35;27.88;;;2.95;;
27722;SDS011;15123;-37.794;175.246;2022-07-09T01:11:00;25.35;;;2.80;;
27722;SDS011;15123;-37.794;175.246;2022-07-09T01:14:24;21.27;;;2.75;;
27722;SDS011;15123;-37.794;175.246;2022-07-09T01:17:49;19.67;;;2.35;;
27722;SDS011;15123;-37.794;175.246;2022-07-09T01:21:14;20.35;;;2.80;;
27722;SDS011;15123;-37.794;175.246;2022-07-09T01:24:39;20.10;;;2.63;;
27722;SDS011;15123;-37.794;175.246;2022-07-09T01:28:03;19.77;;;2.88;;
27722;SDS011;15123;-37.794;175.246;2022-07-09T01:31:29;22.08;;;2.55;;
27722;SDS011;15123;-37.794;175.246;2022-07-09T01:34:53;22.42;;;2.85;;
27722;SDS011;15123;-37.794;175.246;2022-07-09T01:38:18;21.63;;;2.83;;
27722;SDS011;15123;-37.794;175.246;2022-07-09T01:41:43;25.52;;;3.88;;
27722;SDS011;15123;-37.794;175.246;2022-07-09T01:45:02;20.83;;;2.97;;
27722;SDS011;15123;-37.794;175.246;2022-07-09T01:48:21;23.75;;;3.47;;
27722;SDS011;15123;-37.794;175.246;2022-07-09T01:51:45;21.25;;;3.00;;
27722;SDS011;15123;-37.794;175.246;2022-07-09T01:55:09;19.73;;;2.72;;
27722;SDS011;15123;-37.794;175.246;2022-07-09T01:58:33;27.30;;;3.25;;
27722;SDS011;15123;-37.794;175.246;2022-07-09T02:01:58;28.23;;;3.30;;
27722;SDS011;15123;-37.794;175.246;2022-07-09T02:05:22;24.17;;;3.00;;
27722;SDS011;15123;-37.794;175.246;2022-07-09T02:08:46;24.92;;;2.88;;
27722;SDS011;15123;-37.794;175.246;2022-07-09T02:12:10;24.02;;;2.95;;
27722;SDS011;15123;-37.794;175.246;2022-07-09T02:15:35;23.33;;;2.80;;
27722;SDS011;15123;-37.794;175.246;2022-07-09T02:18:59;26.13;;;3.40;;
27722;SDS011;15123;-37.794;175.246;2022-07-09T02:22:24;24.63;;;3.17;;
27722;SDS011;15123;-37.794;175.246;2022-07-09T02:25:48;22.40;;;2.83;;
27722;SDS011;15123;-37.794;175.246;2022-07-09T02:29:15;20.55;;;2.78;;
27722;SDS011;15123;-37.794;175.246;2022-07-09T02:32:39;18.80;;;2.58;;
27722;SDS011;15123;-37.794;175.246;2022-07-09T02:36:12;16.80;;;2.53;;
27722;SDS011;15123;-37.794;175.246;2022-07-09T02:39:37;18.42;;;2.70;;
27722;SDS011;15123;-37.794;175.246;2022-07-09T02:43:02;25.40;;;3.33;;
27722;SDS011;15123;-37.794;175.246;2022-07-09T02:46:28;22.10;;;2.97;;
27722;SDS011;15123;-37.794;175.246;2022-07-09T02:49:52;25.25;;;3.00;;
27722;SDS011;15123;-37.794;175.246;2022-07-09T02:53:20;24.73;;;3.70;;
27722;SDS011;15123;-37.794;175.246;2022-07-09T02:56:45;22.05;;;3.58;;
27722;SDS011;15123;-37.794;175.246;2022-07-09T03:00:09;25.70;;;4.05;;
27722;SDS011;15123;-37.794;175.246;2022-07-09T03:03:33;30.90;;;7.70;;
27722;SDS011;15123;-37.794;175.246;2022-07-09T03:06:57;30.73;;;5.53;;
27722;SDS011;15123;-37.794;175.246;2022-07-09T03:10:21;30.98;;;5.80;;
27722;SDS011;15123;-37.794;175.246;2022-07-09T03:13:45;19.98;;;3.00;;
27722;SDS011;15123;-37.794;175.246;2022-07-09T03:17:10;22.17;;;3.35;;
27722;SDS011;15123;-37.794;175.246;2022-07-09T03:20:35;24.00;;;3.20;;
27722;SDS011;15123;-37.794;175.246;2022-07-09T03:24:00;25.55;;;3.10;;
27722;SDS011;15123;-37.794;175.246;2022-07-09T03:27:25;19.70;;;2.75;;
27722;SDS011;15123;-37.794;175.246;2022-07-09T03:30:49;22.92;;;2.88;;
27722;SDS011;15123;-37.794;175.246;2022-07-09T03:34:22;26.83;;;3.00;;
27722;SDS011;15123;-37.794;175.246;2022-07-09T03:37:46;26.05;;;2.72;;
27722;SDS011;15123;-37.794;175.246;2022-07-09T03:41:10;24.00;;;3.30;;
27722;SDS011;15123;-37.794;175.246;2022-07-09T03:44:34;21.73;;;3.10;;
27722;SDS011;15123;-37.794;175.246;2022-07-09T03:47:59;23.48;;;3.45;;
27722;SDS011;15123;-37.794;175.246;2022-07-09T03:51:23;27.10;;;3.65;;
27722;SDS011;15123;-37.794;175.246;2022-07-09T03:55:07;19.95;;;3.10;;
27722;SDS011;15123;-37.794;175.246;2022-07-09T03:58:31;21.90;;;3.00;;
27722;SDS011;15123;-37.794;175.246;2022-07-09T04:02:00;26.05;;;3.42;;
27722;SDS011;15123;-37.794;175.246;2022-07-09T04:05:24;21.98;;;2.70;;
27722;SDS011;15123;-37.794;175.246;2022-07-09T04:08:48;23.83;;;2.90;;
27722;SDS011;15123;-37.794;175.246;2022-07-09T04:12:15;24.13;;;2.83;;
27722;SDS011;15123;-37.794;175.246;2022-07-09T04:15:59;22.20;;;2.80;;
27722;SDS011;15123;-37.794;175.246;2022-07-09T04:19:23;26.80;;;3.15;;
27722;SDS011;15123;-37.794;175.246;2022-07-09T04:22:58;26.92;;;2.83;;
27722;SDS011;15123;-37.794;175.246;2022-07-09T04:26:27;25.80;;;3.00;;
27722;SDS011;15123;-37.794;175.246;2022-07-09T04:30:16;24.23;;;3.10;;
27722;SDS011;15123;-37.794;175.246;2022-07-09T04:33:40;24.13;;;3.20;;
27722;SDS011;15123;-37.794;175.246;2022-07-09T04:37:05;27.10;;;3.20;;
27722;SDS011;15123;-37.794;175.246;2022-07-09T04:40:30;22.20;;;3.00;;
27722;SDS011;15123;-37.794;175.246;2022-07-09T04:44:14;24.45;;;3.28;;
27722;SDS011;15123;-37.794;175.246;2022-07-09T04:47:41;31.40;;;3.72;;
27722;SDS011;15123;-37.794;175.246;2022-07-09T04:51:22;24.92;;;3.05;;
27722;SDS011;15123;-37.794;175.246;2022-07-09T04:54:49;27.33;;;3.40;;
27722;SDS011;15123;-37.794;175.246;2022-07-09T04:58:13;23.48;;;3.00;;
27722;SDS011;15123;-37.794;175.246;2022-07-09T05:01:35;23.40;;;3.22;;
27722;SDS011;15123;-37.794;175.246;2022-07-09T05:04:52;26.70;;;3.05;;
27722;SDS011;15123;-37.794;175.246;2022-07-09T05:08:19;25.00;;;3.58;;
27722;SDS011;15123;-37.794;175.246;2022-07-09T05:11:44;24.33;;;3.35;;
27722;SDS011;15123;-37.794;175.246;2022-07-09T05:15:10;25.38;;;3.28;;
27722;SDS011;15123;-37.794;175.246;2022-07-09T05:18:33;27.63;;;3.53;;
27722;SDS011;15123;-37.794;175.246;2022-07-09T05:22:00;27.80;;;5.30;;
27722;SDS011;15123;-37.794;175.246;2022-07-09T05:25:24;32.45;;;5.25;;
27722;SDS011;15123;-37.794;175.246;2022-07-09T05:28:58;34.75;;;4.78;;
27722;SDS011;15123;-37.794;175.246;2022-07-09T05:32:22;24.88;;;4.00;;
27722;SDS011;15123;-37.794;175.246;2022-07-09T05:35:47;29.00;;;4.60;;
27722;SDS011;15123;-37.794;175.246;2022-07-09T05:39:11;28.52;;;4.40;;
27722;SDS011;15123;-37.794;175.246;2022-07-09T05:42:36;30.25;;;4.43;;
27722;SDS011;15123;-37.794;175.246;2022-07-09T05:46:19;23.30;;;3.92;;
27722;SDS011;15123;-37.794;175.246;2022-07-09T05:49:43;29.42;;;3.85;;
27722;SDS011;15123;-37.794;175.246;2022-07-09T05:53:07;33.20;;;4.63;;
27722;SDS011;15123;-37.794;175.246;2022-07-09T05:56:31;30.95;;;5.10;;
27722;SDS011;15123;-37.794;175.246;2022-07-09T05:59:56;26.08;;;5.43;;
27722;SDS011;15123;-37.794;175.246;2022-07-09T06:03:20;29.77;;;4.80;;
27722;SDS011;15123;-37.794;175.246;2022-07-09T06:06:47;31.50;;;6.38;;
27722;SDS011;15123;-37.794;175.246;2022-07-09T06:10:40;30.70;;;6.53;;
27722;SDS011;15123;-37.794;175.246;2022-07-09T06:14:06;31.25;;;6.15;;
27722;SDS011;15123;-37.794;175.246;2022-07-09T06:17:34;31.05;;;6.13;;
27722;SDS011;15123;-37.794;175.246;2022-07-09T06:20:59;34.42;;;5.30;;
27722;SDS011;15123;-37.794;175.246;2022-07-09T06:24:35;27.85;;;5.25;;
27722;SDS011;15123;-37.794;175.246;2022-07-09T06:28:01;29.92;;;5.38;;
27722;SDS011;15123;-37.794;175.246;2022-07-09T06:31:25;26.10;;;4.55;;
27722;SDS011;15123;-37.794;175.246;2022-07-09T06:34:50;30.60;;;4.72;;
27722;SDS011;15123;-37.794;175.246;2022-07-09T06:38:14;26.88;;;4.55;;
27722;SDS011;15123;-37.794;175.246;2022-07-09T06:41:40;29.73;;;4.55;;
27722;SDS011;15123;-37.794;175.246;2022-07-09T06:45:04;28.48;;;4.20;;
27722;SDS011;15123;-37.794;175.246;2022-07-09T06:48:40;26.05;;;4.10;;
27722;SDS011;15123;-37.794;175.246;2022-07-09T06:52:04;35.38;;;5.95;;
27722;SDS011;15123;-37.794;175.246;2022-07-09T06:55:28;26.48;;;5.43;;
27722;SDS011;15123;-37.794;175.246;2022-07-09T06:59:15;33.50;;;6.72;;
27722;SDS011;15123;-37.794;175.246;2022-07-09T07:02:40;33.95;;;5.20;;
27722;SDS011;15123;-37.794;175.246;2022-07-09T07:06:23;28.15;;;4.80;;
27722;SDS011;15123;-37.794;175.246;2022-07-09T07:09:49;25.10;;;3.75;;
27722;SDS011;15123;-37.794;175.246;2022-07-09T07:13:13;26.15;;;3.85;;
27722;SDS011;15123;-37.794;175.246;2022-07-09T07:16:46;28.15;;;4.05;;
27722;SDS011;15123;-37.794;175.246;2022-07-09T07:20:14;32.83;;;4.53;;
27722;SDS011;15123;-37.794;175.246;2022-07-09T07:23:41;27.15;;;3.75;;
27722;SDS011;15123;-37.794;175.246;2022-07-09T07:27:05;22.20;;;4.00;;
27722;SDS011;15123;-37.794;175.246;2022-07-09T07:30:29;24.75;;;3.88;;
27722;SDS011;15123;-37.794;175.246;2022-07-09T07:33:53;30.40;;;4.50;;
27722;SDS011;15123;-37.794;175.246;2022-07-09T07:37:17;28.65;;;4.20;;
27722;SDS011;15123;-37.794;175.246;2022-07-09T07:40:42;33.67;;;4.10;;
27722;SDS011;15123;-37.794;175.246;2022-07-09T07:44:11;29.77;;;4.78;;
27722;SDS011;15123;-37.794;175.246;2022-07-09T07:47:37;25.42;;;3.97;;
27722;SDS011;15123;-37.794;175.246;2022-07-09T07:51:02;33.33;;;4.95;;
27722;SDS011;15123;-37.794;175.246;2022-07-09T07:54:29;26.58;;;3.75;;
27722;SDS011;15123;-37.794;175.246;2022-07-09T07:57:56;25.77;;;3.90;;
27722;SDS011;15123;-37.794;175.246;2022-07-09T08:01:21;29.92;;;3.90;;
27722;SDS011;15123;-37.794;175.246;2022-07-09T08:04:45;26.05;;;3.42;;
27722;SDS011;15123;-37.794;175.246;2022-07-09T08:08:10;27.65;;;3.67;;
27722;SDS011;15123;-37.794;175.246;2022-07-09T08:11:35;27.83;;;3.60;;
27722;SDS011;15123;-37.794;175.246;2022-07-09T08:14:59;31.63;;;3.72;;
27722;SDS011;15123;-37.794;175.246;2022-07-09T08:18:42;26.27;;;3.58;;
27722;SDS011;15123;-37.794;175.246;2022-07-09T08:22:06;32.65;;;3.80;;
27722;SDS011;15123;-37.794;175.246;2022-07-09T08:25:30;27.88;;;3.63;;
27722;SDS011;15123;-37.794;175.246;2022-07-09T08:28:54;28.83;;;3.88;;
27722;SDS011;15123;-37.794;175.246;2022-07-09T08:32:19;24.95;;;3.10;;
27722;SDS011;15123;-37.794;175.246;2022-07-09T08:35:56;31.33;;;4.00;;
27722;SDS011;15123;-37.794;175.246;2022-07-09T08:39:20;31.13;;;4.20;;
27722;SDS011;15123;-37.794;175.246;2022-07-09T08:42:44;24.33;;;3.22;;
27722;SDS011;15123;-37.794;175.246;2022-07-09T08:46:09;32.05;;;4.00;;
27722;SDS011;15123;-37.794;175.246;2022-07-09T08:49:34;30.02;;;3.92;;
27722;SDS011;15123;-37.794;175.246;2022-07-09T08:53:00;25.30;;;3.50;;
27722;SDS011;15123;-37.794;175.246;2022-07-09T08:56:27;31.63;;;3.45;;
27722;SDS011;15123;-37.794;175.246;2022-07-09T08:59:52;24.85;;;3.17;;
27722;SDS011;15123;-37.794;175.246;2022-07-09T09:03:18;28.38;;;3.30;;
27722;SDS011;15123;-37.794;175.246;2022-07-09T09:06:42;29.98;;;3.67;;
27722;SDS011;15123;-37.794;175.246;2022-07-09T09:10:07;26.00;;;3.80;;
27722;SDS011;15123;-37.794;175.246;2022-07-09T09:13:46;26.17;;;4.65;;
27722;SDS011;15123;-37.794;175.246;2022-07-09T09:17:11;30.27;;;4.43;;
27722;SDS011;15123;-37.794;175.246;2022-07-09T09:20:35;26.30;;;6.20;;
27722;SDS011;15123;-37.794;175.246;2022-07-09T09:24:02;29.80;;;6.32;;
27722;SDS011;15123;-37.794;175.246;2022-07-09T09:27:29;27.42;;;3.88;;
27722;SDS011;15123;-37.794;175.246;2022-07-09T09:30:53;22.27;;;3.28;;
27722;SDS011;15123;-37.794;175.246;2022-07-09T09:34:17;25.75;;;3.67;;
27722;SDS011;15123;-37.794;175.246;2022-07-09T09:37:42;28.83;;;4.50;;
27722;SDS011;15123;-37.794;175.246;2022-07-09T09:41:07;32.15;;;5.88;;
27722;SDS011;15123;-37.794;175.246;2022-07-09T09:44:32;30.30;;;5.38;;
27722;SDS011;15123;-37.794;175.246;2022-07-09T09:47:51;35.88;;;5.38;;
27722;SDS011;15123;-37.794;175.246;2022-07-09T09:51:08;33.90;;;5.28;;
27722;SDS011;15123;-37.794;175.246;2022-07-09T09:54:34;31.20;;;4.82;;
27722;SDS011;15123;-37.794;175.246;2022-07-09T09:58:06;30.65;;;4.28;;
27722;SDS011;15123;-37.794;175.246;2022-07-09T10:01:31;26.27;;;4.93;;
27722;SDS011;15123;-37.794;175.246;2022-07-09T10:04:55;29.25;;;3.90;;
27722;SDS011;15123;-37.794;175.246;2022-07-09T10:08:20;28.25;;;3.92;;
27722;SDS011;15123;-37.794;175.246;2022-07-09T10:11:45;30.40;;;5.57;;
27722;SDS011;15123;-37.794;175.246;2022-07-09T10:15:25;32.10;;;4.90;;
27722;SDS011;15123;-37.794;175.246;2022-07-09T10:18:50;27.50;;;3.90;;
27722;SDS011;15123;-37.794;175.246;2022-07-09T10:22:20;28.95;;;4.18;;
27722;SDS011;15123;-37.794;175.246;2022-07-09T10:26:03;30.85;;;3.97;;
27722;SDS011;15123;-37.794;175.246;2022-07-09T10:29:28;29.48;;;3.80;;
27722;SDS011;15123;-37.794;175.246;2022-07-09T10:36:25;28.58;;;3.88;;
27722;SDS011;15123;-37.794;175.246;2022-07-09T10:39:53;26.75;;;3.70;;
27722;SDS011;15123;-37.794;175.246;2022-07-09T10:43:16;28.48;;;3.83;;
27722;SDS011;15123;-37.794;175.246;2022-07-09T10:46:42;26.27;;;3.70;;
27722;SDS011;15123;-37.794;175.246;2022-07-09T10:50:02;29.73;;;4.18;;
27722;SDS011;15123;-37.794;175.246;2022-07-09T10:53:27;28.15;;;4.43;;
27722;SDS011;15123;-37.794;175.246;2022-07-09T10:56:56;28.13;;;4.45;;
27722;SDS011;15123;-37.794;175.246;2022-07-09T11:00:22;26.15;;;3.72;;
27722;SDS011;15123;-37.794;175.246;2022-07-09T11:03:59;26.85;;;3.75;;
27722;SDS011;15123;-37.794;175.246;2022-07-09T11:07:24;31.02;;;5.00;;
27722;SDS011;15123;-37.794;175.246;2022-07-09T11:10:51;24.42;;;3.25;;
27722;SDS011;15123;-37.794;175.246;2022-07-09T11:14:18;27.15;;;2.92;;
27722;SDS011;15123;-37.794;175.246;2022-07-09T11:17:53;23.02;;;3.00;;
27722;SDS011;15123;-37.794;175.246;2022-07-09T11:21:21;25.95;;;3.13;;
27722;SDS011;15123;-37.794;175.246;2022-07-09T11:24:49;22.05;;;3.20;;
27722;SDS011;15123;-37.794;175.246;2022-07-09T11:28:20;22.45;;;3.13;;
27722;SDS011;15123;-37.794;175.246;2022-07-09T11:31:51;32.22;;;3.22;;
27722;SDS011;15123;-37.794;175.246;2022-07-09T11:35:30;28.88;;;3.67;;
27722;SDS011;15123;-37.794;175.246;2022-07-09T11:38:54;25.40;;;3.63;;
27722;SDS011;15123;-37.794;175.246;2022-07-09T11:42:19;25.50;;;3.67;;
27722;SDS011;15123;-37.794;175.246;2022-07-09T11:45:52;23.25;;;3.15;;
27722;SDS011;15123;-37.794;175.246;2022-07-09T11:49:16;25.80;;;3.50;;
27722;SDS011;15123;-37.794;175.246;2022-07-09T11:52:48;24.38;;;3.33;;
27722;SDS011;15123;-37.794;175.246;2022-07-09T11:56:12;21.65;;;3.00;;
27722;SDS011;15123;-37.794;175.246;2022-07-09T11:59:38;25.70;;;2.83;;
27722;SDS011;15123;-37.794;175.246;2022-07-09T12:03:10;20.00;;;3.10;;
27722;SDS011;15123;-37.794;175.246;2022-07-09T12:06:34;21.23;;;2.92;;
27722;SDS011;15123;-37.794;175.246;2022-07-09T12:10:10;25.45;;;2.90;;
27722;SDS011;15123;-37.794;175.246;2022-07-09T12:13:39;25.58;;;3.15;;
27722;SDS011;15123;-37.794;175.246;2022-07-09T12:17:00;22.85;;;2.97;;
27722;SDS011;15123;-37.794;175.246;2022-07-09T12:20:18;24.70;;;2.95;;
27722;SDS011;15123;-37.794;175.246;2022-07-09T12:23:42;23.85;;;2.75;;
27722;SDS011;15123;-37.794;175.246;2022-07-09T12:27:10;23.20;;;2.78;;
27722;SDS011;15123;-37.794;175.246;2022-07-09T12:30:35;28.58;;;3.00;;
27722;SDS011;15123;-37.794;175.246;2022-07-09T12:34:00;25.20;;;3.00;;
27722;SDS011;15123;-37.794;175.246;2022-07-09T12:37:27;21.50;;;2.50;;
27722;SDS011;15123;-37.794;175.246;2022-07-09T12:40:51;28.52;;;3.13;;
27722;SDS011;15123;-37.794;175.246;2022-07-09T12:44:15;27.58;;;2.95;;
27722;SDS011;15123;-37.794;175.246;2022-07-09T12:47:56;27.17;;;2.88;;
27722;SDS011;15123;-37.794;175.246;2022-07-09T12:51:21;30.65;;;3.65;;
27722;SDS011;15123;-37.794;175.246;2022-07-09T12:54:46;25.98;;;2.92;;
27722;SDS011;15123;-37.794;175.246;2022-07-09T12:58:10;24.20;;;2.95;;
27722;SDS011;15123;-37.794;175.246;2022-07-09T13:01:34;32.17;;;3.17;;
27722;SDS011;15123;-37.794;175.246;2022-07-09T13:04:58;23.23;;;2.80;;
27722;SDS011;15123;-37.794;175.246;2022-07-09T13:08:25;27.00;;;2.88;;
27722;SDS011;15123;-37.794;175.246;2022-07-09T13:11:49;29.73;;;3.08;;
27722;SDS011;15123;-37.794;175.246;2022-07-09T13:15:13;29.70;;;3.20;;
27722;SDS011;15123;-37.794;175.246;2022-07-09T13:18:48;26.25;;;3.22;;
27722;SDS011;15123;-37.794;175.246;2022-07-09T13:22:12;20.55;;;2.53;;
27722;SDS011;15123;-37.794;175.246;2022-07-09T13:25:36;17.95;;;2.55;;
27722;SDS011;15123;-37.794;175.246;2022-07-09T13:29:00;19.40;;;2.90;;
27722;SDS011;15123;-37.794;175.246;2022-07-09T13:32:24;24.52;;;2.90;;
27722;SDS011;15123;-37.794;175.246;2022-07-09T13:36:14;20.95;;;2.45;;
27722;SDS011;15123;-37.794;175.246;2022-07-09T13:39:38;21.90;;;2.33;;
27722;SDS011;15123;-37.794;175.246;2022-07-09T13:43:03;18.08;;;2.50;;
27722;SDS011;15123;-37.794;175.246;2022-07-09T13:46:54;20.38;;;2.60;;
27722;SDS011;15123;-37.794;175.246;2022-07-09T13:50:18;20.60;;;3.00;;
27722;SDS011;15123;-37.794;175.246;2022-07-09T13:53:42;23.90;;;3.10;;
27722;SDS011;15123;-37.794;175.246;2022-07-09T13:57:07;30.10;;;3.30;;
27722;SDS011;15123;-37.794;175.246;2022-07-09T14:00:49;20.23;;;2.53;;
27722;SDS011;15123;-37.794;175.246;2022-07-09T14:04:31;21.38;;;2.80;;
27722;SDS011;15123;-37.794;175.246;2022-07-09T14:07:58;21.15;;;2.47;;
27722;SDS011;15123;-37.794;175.246;2022-07-09T14:11:32;16.50;;;2.50;;
27722;SDS011;15123;-37.794;175.246;2022-07-09T14:14:56;17.52;;;2.72;;
27722;SDS011;15123;-37.794;175.246;2022-07-09T14:18:19;19.30;;;3.17;;
27722;SDS011;15123;-37.794;175.246;2022-07-09T14:21:38;23.75;;;2.90;;
27722;SDS011;15123;-37.794;175.246;2022-07-09T14:25:03;17.65;;;2.60;;
27722;SDS011;15123;-37.794;175.246;2022-07-09T14:28:54;24.67;;;3.47;;
27722;SDS011;15123;-37.794;175.246;2022-07-09T14:32:15;21.02;;;3.22;;
27722;SDS011;15123;-37.794;175.246;2022-07-09T14:35:32;20.33;;;2.88;;
27722;SDS011;15123;-37.794;175.246;2022-07-09T14:38:57;18.13;;;3.05;;
27722;SDS011;15123;-37.794;175.246;2022-07-09T14:42:21;21.92;;;2.85;;
27722;SDS011;15123;-37.794;175.246;2022-07-09T14:45:50;25.63;;;3.53;;
27722;SDS011;15123;-37.794;175.246;2022-07-09T14:49:15;23.52;;;3.95;;
27722;SDS011;15123;-37.794;175.246;2022-07-09T14:52:38;25.08;;;4.10;;
27722;SDS011;15123;-37.794;175.246;2022-07-09T14:56:22;33.83;;;5.10;;
27722;SDS011;15123;-37.794;175.246;2022-07-09T14:59:46;31.25;;;5.63;;
27722;SDS011;15123;-37.794;175.246;2022-07-09T15:03:10;24.38;;;3.92;;
27722;SDS011;15123;-37.794;175.246;2022-07-09T15:06:36;24.15;;;4.18;;
27722;SDS011;15123;-37.794;175.246;2022-07-09T15:10:04;24.15;;;4.13;;
27722;SDS011;15123;-37.794;175.246;2022-07-09T15:13:28;20.55;;;3.80;;
27722;SDS011;15123;-37.794;175.246;2022-07-09T15:16:56;22.27;;;2.90;;
27722;SDS011;15123;-37.794;175.246;2022-07-09T15:20:20;26.05;;;3.50;;
27722;SDS011;15123;-37.794;175.246;2022-07-09T15:23:44;23.27;;;3.20;;
27722;SDS011;15123;-37.794;175.246;2022-07-09T15:27:09;23.15;;;3.50;;
27722;SDS011;15123;-37.794;175.246;2022-07-09T15:30:34;24.27;;;2.92;;
27722;SDS011;15123;-37.794;175.246;2022-07-09T15:34:02;22.02;;;3.10;;
27722;SDS011;15123;-37.794;175.246;2022-07-09T15:37:26;24.98;;;3.35;;
27722;SDS011;15123;-37.794;175.246;2022-07-09T15:40:50;26.00;;;3.15;;
27722;SDS011;15123;-37.794;175.246;2022-07-09T15:44:14;23.08;;;3.10;;
27722;SDS011;15123;-37.794;175.246;2022-07-09T15:47:41;26.20;;;3.20;;
27722;SDS011;15123;-37.794;175.246;2022-07-09T15:51:08;20.35;;;3.13;;
27722;SDS011;15123;-37.794;175.246;2022-07-09T15:54:41;25.25;;;3.10;;
27722;SDS011;15123;-37.794;175.246;2022-07-09T15:58:09;20.38;;;3.00;;
27722;SDS011;15123;-37.794;175.246;2022-07-09T16:01:33;21.98;;;2.70;;
27722;SDS011;15123;-37.794;175.246;2022-07-09T16:04:57;24.80;;;3.13;;
27722;SDS011;15123;-37.794;175.246;2022-07-09T16:08:22;24.23;;;3.10;;
27722;SDS011;15123;-37.794;175.246;2022-07-09T16:11:47;23.70;;;3.00;;
27722;SDS011;15123;-37.794;175.246;2022-07-09T16:15:29;26.03;;;3.23;;
27722;SDS011;15123;-37.794;175.246;2022-07-09T16:18:53;25.27;;;3.47;;
27722;SDS011;15123;-37.794;175.246;2022-07-09T16:22:18;21.17;;;3.10;;
27722;SDS011;15123;-37.794;175.246;2022-07-09T16:25:42;25.48;;;3.03;;
27722;SDS011;15123;-37.794;175.246;2022-07-09T16:29:06;28.35;;;3.63;;
27722;SDS011;15123;-37.794;175.246;2022-07-09T16:32:30;27.88;;;3.50;;
27722;SDS011;15123;-37.794;175.246;2022-07-09T16:35:54;17.77;;;2.97;;
27722;SDS011;15123;-37.794;175.246;2022-07-09T16:39:18;24.52;;;3.40;;
27722;SDS011;15123;-37.794;175.246;2022-07-09T16:42:42;24.10;;;3.20;;
27722;SDS011;15123;-37.794;175.246;2022-07-09T16:46:07;29.27;;;3.78;;
27722;SDS011;15123;-37.794;175.246;2022-07-09T16:49:31;26.73;;;3.10;;
27722;SDS011;15123;-37.794;175.246;2022-07-09T16:53:13;20.93;;;2.90;;
27722;SDS011;15123;-37.794;175.246;2022-07-09T16:56:37;24.50;;;3.00;;
27722;SDS011;15123;-37.794;175.246;2022-07-09T17:00:03;24.85;;;2.75;;
27722;SDS011;15123;-37.794;175.246;2022-07-09T17:03:27;26.85;;;3.30;;
27722;SDS011;15123;-37.794;175.246;2022-07-09T17:06:51;24.65;;;3.30;;
27722;SDS011;15123;-37.794;175.246;2022-07-09T17:10:15;19.88;;;2.95;;
27722;SDS011;15123;-37.794;175.246;2022-07-09T17:13:39;21.30;;;2.53;;
27722;SDS011;15123;-37.794;175.246;2022-07-09T17:17:03;17.25;;;2.50;;
27722;SDS011;15123;-37.794;175.246;2022-07-09T17:20:29;13.40;;;2.08;;
27722;SDS011;15123;-37.794;175.246;2022-07-09T17:23:52;15.20;;;2.17;;
27722;SDS011;15123;-37.794;175.246;2022-07-09T17:27:16;12.43;;;1.95;;
27722;SDS011;15123;-37.794;175.246;2022-07-09T17:30:40;14.82;;;2.00;;
27722;SDS011;15123;-37.794;175.246;2022-07-09T17:33:59;13.60;;;2.05;;
27722;SDS011;15123;-37.794;175.246;2022-07-09T17:37:16;16.10;;;2.25;;
27722;SDS011;15123;-37.794;175.246;2022-07-09T17:40:40;13.35;;;2.40;;
27722;SDS011;15123;-37.794;175.246;2022-07-09T17:44:06;20.45;;;3.72;;
27722;SDS011;15123;-37.794;175.246;2022-07-09T17:47:31;16.60;;;2.30;;
27722;SDS011;15123;-37.794;175.246;2022-07-09T17:50:55;14.85;;;1.98;;
27722;SDS011;15123;-37.794;175.246;2022-07-09T17:54:19;17.10;;;2.40;;
27722;SDS011;15123;-37.794;175.246;2022-07-09T17:57:43;14.45;;;2.10;;
27722;SDS011;15123;-37.794;175.246;2022-07-09T18:01:08;14.88;;;1.90;;
27722;SDS011;15123;-37.794;175.246;2022-07-09T18:04:31;11.52;;;1.60;;
27722;SDS011;15123;-37.794;175.246;2022-07-09T18:07:55;13.65;;;2.10;;
27722;SDS011;15123;-37.794;175.246;2022-07-09T18:11:14;10.38;;;1.70;;
27722;SDS011;15123;-37.794;175.246;2022-07-09T18:14:39;13.57;;;1.92;;
27722;SDS011;15123;-37.794;175.246;2022-07-09T18:18:04;10.40;;;1.80;;
27722;SDS011;15123;-37.794;175.246;2022-07-09T18:21:24;12.07;;;1.73;;
27722;SDS011;15123;-37.794;175.246;2022-07-09T18:24:48;10.52;;;1.80;;
27722;SDS011;15123;-37.794;175.246;2022-07-09T18:28:12;10.50;;;1.90;;
27722;SDS011;15123;-37.794;175.246;2022-07-09T18:31:36;9.73;;;1.60;;
27722;SDS011;15123;-37.794;175.246;2022-07-09T18:35:00;11.23;;;1.48;;
27722;SDS011;15123;-37.794;175.246;2022-07-09T18:38:24;10.75;;;1.67;;
27722;SDS011;15123;-37.794;175.246;2022-07-09T18:41:50;8.82;;;1.20;;
27722;SDS011;15123;-37.794;175.246;2022-07-09T18:45:14;9.25;;;1.33;;
27722;SDS011;15123;-37.794;175.246;2022-07-09T18:48:37;9.35;;;1.67;;
27722;SDS011;15123;-37.794;175.246;2022-07-09T18:52:02;10.05;;;1.80;;
27722;SDS011;15123;-37.794;175.246;2022-07-09T18:55:27;8.02;;;1.90;;
27722;SDS011;15123;-37.794;175.246;2022-07-09T18:58:52;9.30;;;1.50;;
27722;SDS011;15123;-37.794;175.246;2022-07-09T19:02:17;7.72;;;1.55;;
27722;SDS011;15123;-37.794;175.246;2022-07-09T19:05:42;15.57;;;2.75;;
27722;SDS011;15123;-37.794;175.246;2022-07-09T19:09:14;8.90;;;2.00;;
27722;SDS011;15123;-37.794;175.246;2022-07-09T19:12:39;12.73;;;2.78;;
27722;SDS011;15123;-37.794;175.246;2022-07-09T19:16:04;9.48;;;1.92;;
27722;SDS011;15123;-37.794;175.246;2022-07-09T19:19:28;10.60;;;2.20;;
27722;SDS011;15123;-37.794;175.246;2022-07-09T19:22:44;13.48;;;2.30;;
27722;SDS011;15123;-37.794;175.246;2022-07-09T19:26:09;8.88;;;2.00;;
27722;SDS011;15123;-37.794;175.246;2022-07-09T19:29:33;9.70;;;2.08;;
27722;SDS011;15123;-37.794;175.246;2022-07-09T19:33:00;10.32;;;2.38;;
27722;SDS011;15123;-37.794;175.246;2022-07-09T19:36:43;11.67;;;2.40;;